| time (UTC) | temp C | wind direction | speed KPH | gust KPH | rain 1hr cm | rain 24hr cm | rain mn cm | humidity % | barometer mb |
| 20260506212801 | 0 | 173 | 0.0 | 0.0 | 0.00 | 0.00 | 0.00 | 84 | 1011.9 |
| 20260506212305 | 0 | 173 | 0.0 | 0.0 | 0.00 | 0.00 | 0.00 | 85 | 1011.9 |
| 20260506211802 | 0 | 173 | 0.0 | 0.0 | 0.00 | 0.00 | 0.00 | 84 | 1011.9 |
| 20260506211302 | 0 | 173 | 0.0 | 0.0 | 0.00 | 0.00 | 0.00 | 83 | 1011.9 |
| 20260506210302 | 0 | 173 | 0.0 | 0.0 | 0.00 | 0.00 | 0.00 | 82 | 1011.9 |
| 20260506205802 | 0 | 173 | 0.0 | 0.0 | 0.00 | 0.00 | 0.00 | 81 | 1011.9 |
| 20260506205305 | 1 | 173 | 0.0 | 0.0 | 0.00 | 0.00 | 0.00 | 80 | 1011.9 |
| 20260506204802 | 1 | 173 | 0.0 | 0.0 | 0.00 | 0.00 | 0.00 | 80 | 1011.9 |
| 20260506204302 | 1 | 173 | 0.0 | 0.0 | 0.00 | 0.00 | 0.00 | 81 | 1011.9 |
| 20260506203802 | 1 | 173 | 0.0 | 0.0 | 0.00 | 0.00 | 0.00 | 81 | 1011.9 |
| 20260506203302 | 1 | 173 | 0.0 | 0.0 | 0.00 | 0.00 | 0.00 | 79 | 1012.0 |
| 20260506202802 | 1 | 173 | 0.0 | 0.0 | 0.00 | 0.00 | 0.00 | 78 | 1012.0 |
| 20260506201802 | 1 | 173 | 0.0 | 0.0 | 0.00 | 0.00 | 0.00 | 77 | 1012.0 |
| 20260506201301 | 1 | 173 | 0.0 | 0.0 | 0.00 | 0.00 | 0.00 | 78 | 1012.0 |
| 20260506200302 | 1 | 173 | 0.0 | 0.0 | 0.00 | 0.00 | 0.00 | 77 | 1012.0 |
| 20260506195802 | 1 | 173 | 0.0 | 1.6 | 0.00 | 0.00 | 0.00 | 76 | 1012.1 |
| 20260506195305 | 1 | 173 | 0.0 | 1.6 | 0.00 | 0.00 | 0.00 | 76 | 1012.1 |
| 20260506194802 | 1 | 173 | 0.0 | 1.6 | 0.00 | 0.00 | 0.00 | 75 | 1012.1 |
| 20260506193802 | 2 | 173 | 0.0 | 1.6 | 0.00 | 0.00 | 0.00 | 74 | 1012.1 |
| 20260506193302 | 2 | 173 | 0.0 | 1.6 | 0.00 | 0.00 | 0.00 | 74 | 1012.1 |
| 20260506192802 | 2 | 173 | 0.0 | 1.6 | 0.00 | 0.00 | 0.00 | 73 | 1012.1 |
| 20260506192305 | 2 | 173 | 0.0 | 0.0 | 0.00 | 0.00 | 0.00 | 72 | 1012.1 |
| 20260506191802 | 2 | 173 | 0.0 | 3.2 | 0.00 | 0.00 | 0.00 | 72 | 1012.1 |
| 20260506190802 | 2 | 173 | 0.0 | 1.6 | 0.00 | 0.00 | 0.00 | 70 | 1012.1 |
| 20260506190302 | 3 | 173 | 0.0 | 1.6 | 0.00 | 0.00 | 0.00 | 69 | 1012.1 |
| 20260506185802 | 3 | 173 | 0.0 | 0.0 | 0.00 | 0.00 | 0.00 | 67 | 1012.1 |
| 20260506185306 | 3 | 173 | 0.0 | 1.6 | 0.00 | 0.00 | 0.00 | 65 | 1012.1 |
| 20260506184802 | 3 | 173 | 0.0 | 0.0 | 0.00 | 0.00 | 0.00 | 64 | 1012.1 |
| 20260506183802 | 4 | 173 | 0.0 | 0.0 | 0.00 | 0.00 | 0.00 | 62 | 1012.1 |
| 20260506183302 | 5 | 173 | 0.0 | 0.0 | 0.00 | 0.00 | 0.00 | 61 | 1011.9 |
| 20260506182802 | 5 | 173 | 0.0 | 1.6 | 0.00 | 0.00 | 0.00 | 59 | 1011.9 |
| 20260506182306 | 5 | 173 | 0.0 | 1.6 | 0.00 | 0.00 | 0.00 | 58 | 1011.9 |
| 20260506180802 | 6 | 157 | 1.6 | 4.8 | 0.00 | 0.00 | 0.00 | 54 | 1011.9 |
| 20260506180302 | 6 | 153 | 1.6 | 8.0 | 0.00 | 0.00 | 0.00 | 54 | 1011.9 |
| 20260506175802 | 6 | 165 | 1.6 | 8.0 | 0.00 | 0.00 | 0.00 | 53 | 1011.9 |
| 20260506175306 | 6 | 171 | 3.2 | 4.8 | 0.00 | 0.00 | 0.00 | 53 | 1011.8 |
| 20260506174802 | 6 | 186 | 3.2 | 8.0 | 0.00 | 0.00 | 0.00 | 52 | 1011.8 |
| 20260506174302 | 7 | 167 | 3.2 | 8.0 | 0.00 | 0.00 | 0.00 | 52 | 1011.9 |
| 20260506173802 | 7 | 166 | 3.2 | 9.7 | 0.00 | 0.00 | 0.00 | 52 | 1011.8 |
| 20260506173302 | 7 | 163 | 6.4 | 12.9 | 0.00 | 0.00 | 0.00 | 51 | 1011.8 |
| 20260506172802 | 7 | 162 | 4.8 | 11.3 | 0.00 | 0.00 | 0.00 | 49 | 1011.8 |
| 20260506172306 | 7 | 176 | 4.8 | 9.7 | 0.00 | 0.00 | 0.00 | 49 | 1011.8 |
| 20260506171802 | 7 | 164 | 8.0 | 14.5 | 0.00 | 0.00 | 0.00 | 48 | 1011.8 |
| 20260506171302 | 7 | 168 | 4.8 | 9.7 | 0.00 | 0.00 | 0.00 | 48 | 1011.8 |
| 20260506170802 | 7 | 168 | 8.0 | 11.3 | 0.00 | 0.00 | 0.00 | 48 | 1011.8 |
| 20260506170302 | 7 | 178 | 3.2 | 8.0 | 0.00 | 0.00 | 0.00 | 47 | 1011.8 |
| 20260506165305 | 7 | 200 | 8.0 | 16.1 | 0.00 | 0.00 | 0.00 | 46 | 1011.8 |
| 20260506164302 | 8 | 170 | 8.0 | 14.5 | 0.00 | 0.00 | 0.00 | 45 | 1011.8 |
| 20260506163802 | 8 | 168 | 6.4 | 16.1 | 0.00 | 0.00 | 0.00 | 45 | 1011.8 |
| 20260506163301 | 8 | 183 | 4.8 | 12.9 | 0.00 | 0.00 | 0.00 | 44 | 1011.8 |
| 20260506162802 | 8 | 155 | 4.8 | 12.9 | 0.00 | 0.00 | 0.00 | 42 | 1011.8 |
| 20260506162306 | 8 | 150 | 9.7 | 16.1 | 0.00 | 0.00 | 0.00 | 40 | 1011.8 |
| 20260506161802 | 8 | 161 | 4.8 | 11.3 | 0.00 | 0.00 | 0.00 | 44 | 1011.8 |
| 20260506161303 | 8 | 173 | 4.8 | 12.9 | 0.00 | 0.00 | 0.00 | 45 | 1011.8 |
| 20260506160802 | 8 | 160 | 3.2 | 14.5 | 0.00 | 0.00 | 0.00 | 44 | 1011.8 |
| 20260506155802 | 8 | 170 | 8.0 | 16.1 | 0.00 | 0.00 | 0.00 | 42 | 1011.7 |
| 20260506155305 | 8 | 180 | 4.8 | 9.7 | 0.00 | 0.00 | 0.00 | 41 | 1011.7 |
| 20260506154802 | 8 | 187 | 4.8 | 14.5 | 0.00 | 0.00 | 0.00 | 41 | 1011.7 |
| 20260506153802 | 8 | 166 | 6.4 | 19.3 | 0.00 | 0.00 | 0.00 | 40 | 1011.7 |
| 20260506153302 | 8 | 178 | 4.8 | 12.9 | 0.00 | 0.00 | 0.00 | 41 | 1011.8 |
| 20260506152802 | 9 | 189 | 8.0 | 14.5 | 0.00 | 0.00 | 0.00 | 38 | 1011.8 |
| 20260506152305 | 9 | 174 | 4.8 | 4.8 | 0.00 | 0.00 | 0.00 | 41 | 1011.8 |
| 20260506151803 | 10 | 175 | 4.8 | 16.1 | 0.00 | 0.00 | 0.00 | 41 | 1011.8 |
| 20260506151302 | 9 | 185 | 6.4 | 14.5 | 0.00 | 0.00 | 0.00 | 41 | 1011.8 |
| 20260506150802 | 9 | 138 | 4.8 | 19.3 | 0.00 | 0.00 | 0.00 | 38 | 1011.8 |
| 20260506150304 | 10 | 185 | 3.2 | 14.5 | 0.00 | 0.00 | 0.00 | 38 | 1011.8 |
| 20260506145802 | 9 | 167 | 3.2 | 9.7 | 0.00 | 0.00 | 0.00 | 39 | 1011.8 |
| 20260506145305 | 9 | 188 | 3.2 | 9.7 | 0.00 | 0.00 | 0.00 | 40 | 1011.8 |
| 20260506144802 | 8 | 157 | 4.8 | 14.5 | 0.00 | 0.00 | 0.00 | 39 | 1011.8 |
| 20260506144302 | 9 | 176 | 6.4 | 16.1 | 0.00 | 0.00 | 0.00 | 39 | 1011.8 |
| 20260506143802 | 9 | 182 | 1.6 | 9.7 | 0.00 | 0.00 | 0.00 | 38 | 1011.8 |
| 20260506143302 | 9 | 171 | 3.2 | 11.3 | 0.00 | 0.00 | 0.00 | 38 | 1011.8 |
| 20260506142802 | 9 | 138 | 4.8 | 19.3 | 0.00 | 0.00 | 0.00 | 38 | 1011.8 |
| 20260506141802 | 10 | 180 | 3.2 | 16.1 | 0.00 | 0.00 | 0.00 | 38 | 1011.8 |
| 20260506141302 | 10 | 171 | 4.8 | 16.1 | 0.00 | 0.00 | 0.00 | 37 | 1011.8 |
| 20260506140802 | 10 | 176 | 3.2 | 19.3 | 0.00 | 0.00 | 0.00 | 36 | 1011.8 |
| 20260506140302 | 10 | 146 | 3.2 | 12.9 | 0.00 | 0.00 | 0.00 | 34 | 1011.8 |
| 20260506135802 | 10 | 159 | 6.4 | 19.3 | 0.00 | 0.00 | 0.00 | 34 | 1011.8 |
| 20260506134802 | 10 | 166 | 4.8 | 19.3 | 0.00 | 0.00 | 0.00 | 37 | 1011.7 |
| 20260506134302 | 10 | 167 | 6.4 | 19.3 | 0.00 | 0.00 | 0.00 | 35 | 1011.7 |
| 20260506133803 | 10 | 173 | 8.0 | 19.3 | 0.00 | 0.00 | 0.00 | 37 | 1011.7 |
| 20260506133302 | 11 | 180 | 3.2 | 4.8 | 0.00 | 0.00 | 0.00 | 37 | 1011.8 |
| 20260506132802 | 10 | 177 | 6.4 | 22.5 | 0.00 | 0.00 | 0.00 | 35 | 1011.8 |
| 20260506132305 | 10 | 156 | 8.0 | 16.1 | 0.00 | 0.00 | 0.00 | 36 | 1011.8 |
| 20260506131802 | 10 | 172 | 6.4 | 19.3 | 0.00 | 0.00 | 0.00 | 38 | 1011.8 |
| 20260506131302 | 10 | 162 | 8.0 | 19.3 | 0.00 | 0.00 | 0.00 | 38 | 1011.8 |
| 20260506130802 | 10 | 190 | 8.0 | 14.5 | 0.00 | 0.00 | 0.00 | 36 | 1011.8 |
| 20260506130302 | 11 | 152 | 4.8 | 8.0 | 0.00 | 0.00 | 0.00 | 37 | 1011.8 |
| 20260506125802 | 11 | 164 | 6.4 | 16.1 | 0.00 | 0.00 | 0.00 | 36 | 1011.8 |
| 20260506124803 | 11 | 40 | 3.2 | 9.7 | 0.00 | 0.00 | 0.00 | 33 | 1011.8 |
| 20260506123302 | 12 | 293 | 3.2 | 8.0 | 0.00 | 0.00 | 0.00 | 33 | 1012.0 |
| 20260506122802 | 11 | 191 | 3.2 | 9.7 | 0.00 | 0.00 | 0.00 | 35 | 1012.0 |
| 20260506122305 | 11 | 79 | 3.2 | 9.7 | 0.00 | 0.00 | 0.00 | 35 | 1012.0 |
| 20260506121802 | 11 | 130 | 3.2 | 11.3 | 0.00 | 0.00 | 0.00 | 36 | 1012.0 |
| 20260506121303 | 11 | 168 | 3.2 | 9.7 | 0.00 | 0.00 | 0.00 | 36 | 1012.0 |
| 20260506120803 | 11 | 65 | 3.2 | 14.5 | 0.00 | 0.00 | 0.00 | 36 | 1012.0 |
| 20260506120302 | 12 | 158 | 1.6 | 12.9 | 0.00 | 0.00 | 0.00 | 38 | 1012.0 |
| 20260506115802 | 11 | 119 | 3.2 | 9.7 | 0.00 | 0.00 | 0.00 | 39 | 1012.0 |
| 20260506115306 | 11 | 315 | 3.2 | 11.3 | 0.00 | 0.00 | 0.00 | 38 | 1012.0 |
| 20260506114802 | 11 | 134 | 3.2 | 11.3 | 0.00 | 0.00 | 0.00 | 38 | 1012.0 |
| 20260506114302 | 11 | 62 | 4.8 | 12.9 | 0.00 | 0.00 | 0.00 | 37 | 1012.0 |
| 20260506113302 | 11 | 113 | 3.2 | 9.7 | 0.00 | 0.00 | 0.00 | 36 | 1012.0 |
| 20260506112802 | 11 | 157 | 3.2 | 9.7 | 0.00 | 0.00 | 0.00 | 37 | 1012.0 |
| 20260506112305 | 11 | 169 | 3.2 | 16.1 | 0.00 | 0.00 | 0.00 | 35 | 1012.0 |
| 20260506111803 | 11 | 165 | 3.2 | 11.3 | 0.00 | 0.00 | 0.00 | 37 | 1012.0 |
| 20260506110803 | 11 | 146 | 3.2 | 11.3 | 0.00 | 0.00 | 0.00 | 38 | 1012.0 |
| 20260506110302 | 11 | 145 | 3.2 | 11.3 | 0.00 | 0.00 | 0.00 | 39 | 1012.0 |
| 20260506105803 | 11 | 73 | 4.8 | 9.7 | 0.00 | 0.00 | 0.00 | 38 | 1012.0 |
| 20260506105305 | 11 | 145 | 1.6 | 9.7 | 0.00 | 0.00 | 0.00 | 41 | 1012.1 |
| 20260506103802 | 11 | 65 | 4.8 | 14.5 | 0.00 | 0.00 | 0.00 | 42 | 1012.2 |
| 20260506103302 | 11 | 155 | 4.8 | 12.9 | 0.00 | 0.00 | 0.00 | 41 | 1012.2 |
| 20260506102802 | 11 | 195 | 4.8 | 14.5 | 0.00 | 0.00 | 0.00 | 41 | 1012.2 |
| 20260506102305 | 11 | 153 | 4.8 | 14.5 | 0.00 | 0.00 | 0.00 | 38 | 1012.4 |
| 20260506101802 | 11 | 157 | 4.8 | 9.7 | 0.00 | 0.00 | 0.00 | 37 | 1012.4 |
| 20260506100302 | 11 | 351 | 3.2 | 8.0 | 0.00 | 0.00 | 0.00 | 36 | 1012.4 |
| 20260506095803 | 11 | 335 | 3.2 | 4.8 | 0.00 | 0.00 | 0.00 | 34 | 1012.4 |
| 20260506094802 | 10 | 32 | 1.6 | 4.8 | 0.00 | 0.00 | 0.00 | 35 | 1012.4 |
| 20260506094302 | 11 | 32 | 1.6 | 4.8 | 0.00 | 0.00 | 0.00 | 36 | 1012.4 |
| 20260506093802 | 10 | 19 | 0.0 | 1.6 | 0.00 | 0.00 | 0.00 | 34 | 1012.4 |
| 20260506093302 | 10 | 351 | 1.6 | 4.8 | 0.00 | 0.00 | 0.00 | 33 | 1012.3 |
| 20260506092802 | 10 | 15 | 3.2 | 4.8 | 0.00 | 0.00 | 0.00 | 32 | 1012.3 |
| 20260506092302 | 10 | 30 | 0.0 | 4.8 | 0.00 | 0.00 | 0.00 | 37 | 1012.3 |
| 20260506091802 | 10 | 322 | 1.6 | 11.3 | 0.00 | 0.00 | 0.00 | 36 | 1012.3 |
| 20260506091302 | 10 | 7 | 3.2 | 11.3 | 0.00 | 0.00 | 0.00 | 37 | 1012.3 |
| 20260506090802 | 10 | 11 | 3.2 | 4.8 | 0.00 | 0.00 | 0.00 | 38 | 1012.3 |
| 20260506090302 | 10 | 19 | 3.2 | 4.8 | 0.00 | 0.00 | 0.00 | 37 | 1012.3 |
| 20260506085305 | 10 | 30 | 1.6 | 4.8 | 0.00 | 0.00 | 0.00 | 40 | 1012.3 |
| 20260506084302 | 9 | 356 | 3.2 | 4.8 | 0.00 | 0.00 | 0.00 | 40 | 1012.3 |
| 20260506083302 | 9 | 48 | 3.2 | 4.8 | 0.00 | 0.00 | 0.00 | 42 | 1012.2 |
| 20260506082802 | 9 | 22 | 0.0 | 4.8 | 0.00 | 0.00 | 0.00 | 44 | 1012.2 |
| 20260506082304 | 8 | 25 | 3.2 | 4.8 | 0.00 | 0.00 | 0.00 | 45 | 1012.2 |
| 20260506081802 | 8 | 3 | 1.6 | 3.2 | 0.00 | 0.00 | 0.00 | 47 | 1012.2 |
| 20260506081302 | 8 | 39 | 3.2 | 4.8 | 0.00 | 0.00 | 0.00 | 46 | 1012.0 |
| 20260506080802 | 8 | 40 | 3.2 | 4.8 | 0.00 | 0.00 | 0.00 | 47 | 1012.0 |
| 20260506073302 | 7 | 0 | 3.2 | 4.8 | 0.00 | 0.00 | 0.00 | 53 | 1010.1 |
| 20260506072803 | 7 | 20 | 1.6 | 4.8 | 0.00 | 0.00 | 0.00 | 54 | 1010.1 |
| 20260506072305 | 7 | 24 | 3.2 | 4.8 | 0.00 | 0.00 | 0.00 | 55 | 1010.1 |
| 20260506071803 | 7 | 24 | 1.6 | 4.8 | 0.00 | 0.00 | 0.00 | 57 | 1010.1 |
| 20260506071302 | 7 | 16 | 1.6 | 4.8 | 0.00 | 0.00 | 0.00 | 58 | 1010.1 |
| 20260506070802 | 7 | 40 | 3.2 | 4.8 | 0.00 | 0.00 | 0.00 | 58 | 1010.1 |
| 20260506070303 | 6 | 11 | 3.2 | 4.8 | 0.00 | 0.00 | 0.00 | 58 | 1010.1 |
| 20260506062305 | 6 | 3 | 0.0 | 3.2 | 0.00 | 0.00 | 0.00 | 65 | 1010.1 |
| 20260506061302 | 6 | 290 | 1.6 | 4.8 | 0.00 | 0.00 | 0.00 | 65 | 1010.1 |
| 20260506060803 | 6 | 288 | 1.6 | 4.8 | 0.00 | 0.00 | 0.00 | 66 | 1010.1 |
| 20260506060302 | 6 | 303 | 1.6 | 4.8 | 0.00 | 0.00 | 0.00 | 66 | 1010.1 |
| 20260506051302 | 5 | 276 | 1.6 | 4.8 | 0.00 | 0.00 | 0.00 | 76 | 1010.1 |
| 20260506050303 | 4 | 293 | 1.6 | 4.8 | 0.00 | 0.00 | 0.00 | 78 | 1010.1 |
| 20260506044302 | 3 | 355 | 1.6 | 4.8 | 0.00 | 0.00 | 0.00 | 84 | 1010.1 |
| 20260506043803 | 3 | 307 | 3.2 | 4.8 | 0.00 | 0.00 | 0.00 | 86 | 1010.1 |
| 20260506043302 | 3 | 358 | 1.6 | 4.8 | 0.00 | 0.00 | 0.00 | 88 | 1010.1 |
| 20260506042803 | 2 | 324 | 1.6 | 4.8 | 0.00 | 0.00 | 0.00 | 90 | 1010.1 |
| 20260506042305 | 2 | 269 | 3.2 | 4.8 | 0.00 | 0.00 | 0.00 | 93 | 1010.1 |
| 20260506041802 | 1 | 304 | 1.6 | 3.2 | 0.00 | 0.00 | 0.00 | 95 | 1010.1 |
| 20260506041303 | 1 | 206 | 0.0 | 1.6 | 0.00 | 0.00 | 0.00 | 95 | 1010.1 |
| 20260506040802 | 1 | 206 | 0.0 | 1.6 | 0.00 | 0.00 | 0.00 | 95 | 1010.1 |
| 20260506040303 | 1 | 206 | 0.0 | 1.6 | 0.00 | 0.00 | 0.00 | 95 | 1010.1 |
| 20260506035802 | 1 | 206 | 0.0 | 1.6 | 0.00 | 0.00 | 0.00 | 95 | 1010.1 |
| 20260506035305 | 1 | 207 | 0.0 | 3.2 | 0.00 | 0.00 | 0.00 | 95 | 1010.1 |
| 20260506034802 | 1 | 205 | 1.6 | 4.8 | 0.00 | 0.00 | 0.00 | 95 | 1010.1 |
| 20260506034303 | 0 | 252 | 1.6 | 3.2 | 0.00 | 0.00 | 0.00 | 95 | 1010.1 |
| 20260506033802 | 0 | 252 | 0.0 | 0.0 | 0.00 | 0.00 | 0.00 | 95 | 1010.1 |
| 20260506032803 | 0 | 252 | 0.0 | 3.2 | 0.00 | 0.00 | 0.00 | 95 | 1010.1 |
| 20260506032305 | 0 | 252 | 1.6 | 3.2 | 0.00 | 0.00 | 0.00 | 94 | 1010.1 |
| 20260506031802 | 0 | 252 | 0.0 | 1.6 | 0.00 | 0.00 | 0.00 | 95 | 1010.1 |
| 20260506031303 | 1 | 252 | 0.0 | 1.6 | 0.00 | 0.00 | 0.00 | 95 | 1010.1 |
| 20260506030802 | 1 | 252 | 1.6 | 3.2 | 0.00 | 0.00 | 0.00 | 95 | 1010.1 |
| 20260506030302 | 1 | 260 | 0.0 | 1.6 | 0.00 | 0.00 | 0.00 | 95 | 1010.1 |
| 20260506025803 | 1 | 260 | 0.0 | 3.2 | 0.00 | 0.00 | 0.00 | 95 | 1010.1 |
| 20260506025305 | 1 | 260 | 0.0 | 1.6 | 0.00 | 0.00 | 0.00 | 95 | 1010.1 |
| 20260506024803 | 1 | 279 | 0.0 | 3.2 | 0.00 | 0.00 | 0.00 | 96 | 1010.1 |
| 20260506024303 | 1 | 331 | 0.0 | 1.6 | 0.00 | 0.00 | 0.00 | 95 | 1010.1 |
| 20260506023802 | 1 | 331 | 0.0 | 1.6 | 0.00 | 0.00 | 0.00 | 95 | 1010.1 |
| 20260506023303 | 1 | 331 | 0.0 | 1.6 | 0.00 | 0.00 | 0.00 | 95 | 1010.1 |
| 20260506022803 | 1 | 331 | 0.0 | 1.6 | 0.00 | 0.00 | 0.00 | 95 | 1010.1 |
| 20260506022305 | 1 | 331 | 0.0 | 1.6 | 0.00 | 0.00 | 0.00 | 96 | 1010.1 |
| 20260506021802 | 1 | 301 | 0.0 | 3.2 | 0.00 | 0.00 | 0.00 | 96 | 1010.0 |
| 20260506020802 | 1 | 227 | 0.0 | 1.6 | 0.00 | 0.00 | 0.00 | 95 | 1009.7 |
| 20260506020303 | 1 | 217 | 0.0 | 0.0 | 0.00 | 0.00 | 0.00 | 95 | 1009.7 |
| 20260506015802 | 1 | 217 | 0.0 | 0.0 | 0.00 | 0.00 | 0.00 | 95 | 1009.7 |
| 20260506014803 | 1 | 217 | 0.0 | 0.0 | 0.00 | 0.00 | 0.00 | 95 | 1009.7 |
| 20260506014302 | 1 | 217 | 0.0 | 1.6 | 0.00 | 0.00 | 0.00 | 95 | 1009.7 |
| 20260506013803 | 1 | 217 | 0.0 | 0.0 | 0.00 | 0.00 | 0.00 | 95 | 1009.7 |
| 20260506013302 | 1 | 217 | 0.0 | 0.0 | 0.00 | 0.00 | 0.00 | 95 | 1009.7 |
| 20260506012803 | 1 | 217 | 0.0 | 1.6 | 0.00 | 0.00 | 0.00 | 95 | 1009.7 |
| 20260506011802 | 1 | 217 | 0.0 | 1.6 | 0.00 | 0.00 | 0.00 | 95 | 1009.6 |
| 20260506011303 | 1 | 217 | 0.0 | 1.6 | 0.00 | 0.00 | 0.00 | 95 | 1009.5 |
| 20260506010803 | 1 | 217 | 0.0 | 1.6 | 0.00 | 0.00 | 0.00 | 95 | 1009.5 |
| 20260506005803 | 1 | 215 | 0.0 | 1.6 | 0.00 | 0.00 | 0.00 | 95 | 1009.3 |
| 20260506005305 | 1 | 215 | 1.6 | 3.2 | 0.00 | 0.00 | 0.00 | 95 | 1009.3 |
| 20260506004802 | 1 | 215 | 0.0 | 1.6 | 0.00 | 0.00 | 0.00 | 95 | 1008.9 |
| 20260506004303 | 1 | 215 | 0.0 | 1.6 | 0.00 | 0.00 | 0.00 | 95 | 1008.9 |
| 20260506003803 | 1 | 215 | 0.0 | 1.6 | 0.00 | 0.00 | 0.00 | 95 | 1008.9 |
| 20260506003303 | 2 | 215 | 1.6 | 4.8 | 0.00 | 0.00 | 0.00 | 95 | 1008.9 |
| 20260506002305 | 2 | 215 | 0.0 | 4.8 | 0.00 | 0.00 | 0.00 | 95 | 1008.9 |
| 20260506001303 | 1 | 223 | 0.0 | 0.0 | 0.00 | 0.00 | 0.00 | 95 | 1008.9 |
| 20260506000803 | 1 | 223 | 0.0 | 1.6 | 0.00 | 0.00 | 0.00 | 95 | 1008.9 |
| 20260506000302 | 1 | 223 | 0.0 | 3.2 | 0.00 | 0.00 | 0.00 | 95 | 1008.9 |
| 20260505235305 | 1 | 223 | 1.6 | 3.2 | 0.00 | 0.00 | 0.00 | 95 | 1008.9 |
| 20260505234802 | 1 | 223 | 1.6 | 4.8 | 0.00 | 0.00 | 0.00 | 95 | 1008.9 |
| 20260505234302 | 1 | 223 | 1.6 | 3.2 | 0.00 | 0.00 | 0.00 | 94 | 1008.9 |
| 20260505233803 | 1 | 223 | 1.6 | 3.2 | 0.00 | 0.00 | 0.00 | 94 | 1008.8 |
| 20260505233303 | 1 | 223 | 0.0 | 3.2 | 0.00 | 0.00 | 0.00 | 94 | 1008.8 |
| 20260505232803 | 2 | 223 | 0.0 | 0.0 | 0.00 | 0.00 | 0.00 | 95 | 1008.8 |
| 20260505232305 | 2 | 223 | 0.0 | 1.6 | 0.00 | 0.00 | 0.00 | 95 | 1008.8 |
| 20260505231802 | 2 | 223 | 0.0 | 1.6 | 0.00 | 0.00 | 0.00 | 94 | 1008.8 |
| 20260505231303 | 2 | 223 | 1.6 | 3.2 | 0.00 | 0.00 | 0.00 | 95 | 1008.8 |
| 20260505230803 | 3 | 265 | 0.0 | 1.6 | 0.00 | 0.00 | 0.00 | 95 | 1008.8 |
| 20260505230303 | 3 | 265 | 1.6 | 3.2 | 0.00 | 0.00 | 0.00 | 95 | 1008.8 |
| 20260505225802 | 3 | 245 | 0.0 | 3.2 | 0.00 | 0.00 | 0.00 | 95 | 1008.8 |
| 20260505225305 | 2 | 240 | 0.0 | 1.6 | 0.00 | 0.00 | 0.00 | 95 | 1008.5 |
| 20260505224303 | 2 | 162 | 0.0 | 1.6 | 0.00 | 0.00 | 0.00 | 94 | 1008.5 |
| 20260505223803 | 2 | 161 | 0.0 | 1.6 | 0.00 | 0.00 | 0.00 | 94 | 1008.5 |
| 20260505223303 | 2 | 161 | 0.0 | 1.6 | 0.00 | 0.00 | 0.00 | 95 | 1008.5 |
| 20260505222803 | 2 | 162 | 0.0 | 1.6 | 0.00 | 0.00 | 0.00 | 94 | 1008.5 |
| 20260505222305 | 2 | 162 | 0.0 | 1.6 | 0.00 | 0.00 | 0.00 | 94 | 1008.5 |
| 20260505221802 | 2 | 162 | 0.0 | 0.0 | 0.00 | 0.00 | 0.00 | 94 | 1008.5 |
| 20260505221303 | 2 | 162 | 0.0 | 0.0 | 0.00 | 0.00 | 0.00 | 94 | 1008.5 |
| 20260505220816 | 2 | 162 | 0.0 | 0.0 | 0.00 | 0.00 | 0.00 | 94 | 1008.5 |
| 20260505220302 | 2 | 162 | 0.0 | 0.0 | 0.00 | 0.00 | 0.00 | 94 | 1008.3 |
| 20260505215803 | 2 | 161 | 0.0 | 0.0 | 0.00 | 0.00 | 0.00 | 94 | 1008.3 |
| 20260505215305 | 3 | 162 | 0.0 | 3.2 | 0.00 | 0.00 | 0.00 | 94 | 1008.3 |
| 20260505214803 | 3 | 162 | 0.0 | 3.2 | 0.00 | 0.00 | 0.00 | 94 | 1008.3 |
| 20260505214302 | 3 | 162 | 0.0 | 3.2 | 0.00 | 0.00 | 0.00 | 94 | 1008.3 |
| 20260505213803 | 3 | 162 | 0.0 | 0.0 | 0.00 | 0.00 | 0.00 | 94 | 1008.3 |
| 20260505213302 | 3 | 162 | 0.0 | 1.6 | 0.00 | 0.00 | 0.00 | 94 | 1008.2 |